createdAt,value
2017-02-20T00:00:34.687Z,9.96
2017-02-20T00:01:48.283Z,9.97
2017-02-20T00:03:19.723Z,9.94
2017-02-20T00:04:33.384Z,9.93
2017-02-20T00:05:47.364Z,9.91
2017-02-20T00:07:01.876Z,9.89
2017-02-20T00:08:15.870Z,9.87
2017-02-20T00:09:29.973Z,9.83
2017-02-20T00:10:43.914Z,9.79
2017-02-20T00:12:23.399Z,9.75
2017-02-20T00:13:37.045Z,9.68
2017-02-20T00:14:50.852Z,9.65
2017-02-20T00:16:04.494Z,9.64
2017-02-20T00:17:18.239Z,9.63
2017-02-20T00:18:31.971Z,9.63
2017-02-20T00:19:46.344Z,9.62
2017-02-20T00:21:00.749Z,9.62
2017-02-20T00:22:14.692Z,9.62
2017-02-20T00:23:28.612Z,9.61
2017-02-20T00:24:42.174Z,9.6
2017-02-20T00:25:55.906Z,9.61
2017-02-20T00:27:09.737Z,9.6
2017-02-20T00:28:23.950Z,9.61
2017-02-20T00:29:37.916Z,9.61
2017-02-20T00:30:51.519Z,9.6
2017-02-20T00:32:05.008Z,9.59
2017-02-20T00:33:19.316Z,9.58
2017-02-20T00:34:32.878Z,9.55
2017-02-20T00:35:47.032Z,9.5
2017-02-20T00:37:00.716Z,9.46
2017-02-20T00:38:14.438Z,9.43
2017-02-20T00:39:29.179Z,9.39
2017-02-20T00:40:43.016Z,9.37
2017-02-20T00:41:59.352Z,9.35
2017-02-20T00:43:13.183Z,9.34
2017-02-20T00:44:27.891Z,9.32
2017-02-20T00:46:01.578Z,9.28
2017-02-20T00:47:15.208Z,9.27
2017-02-20T00:48:30.091Z,9.23
2017-02-20T00:49:43.676Z,9.2
2017-02-20T00:50:57.130Z,9.18
2017-02-20T00:52:10.669Z,9.17
2017-02-20T00:53:24.528Z,9.15
2017-02-20T00:54:38.168Z,9.13
2017-02-20T00:55:51.615Z,9.11
2017-02-20T00:57:05.195Z,9.08
2017-02-20T00:58:18.675Z,9.07
2017-02-20T00:59:32.388Z,9.05
2017-02-20T01:00:46.330Z,9.03
2017-02-20T01:02:00.777Z,9.04
2017-02-20T01:03:14.515Z,9.04
2017-02-20T01:04:28.232Z,9.03
2017-02-20T01:05:42.698Z,9.04
2017-02-20T01:06:56.316Z,9.03
2017-02-20T01:08:10.299Z,9.04
2017-02-20T01:09:23.894Z,9.06
2017-02-20T01:10:37.470Z,9.06
2017-02-20T01:11:51.721Z,9.08
2017-02-20T01:13:05.277Z,9.08
2017-02-20T01:14:18.891Z,9.1
2017-02-20T01:15:32.597Z,9.13
2017-02-20T01:16:46.672Z,9.16
2017-02-20T01:18:00.243Z,9.19
2017-02-20T01:19:13.900Z,9.22
2017-02-20T01:20:27.553Z,9.25
2017-02-20T01:21:42.063Z,9.26
2017-02-20T01:22:55.510Z,9.28
2017-02-20T01:24:09.236Z,9.3
2017-02-20T01:25:22.958Z,9.32
2017-02-20T01:26:36.696Z,9.36
2017-02-20T01:27:50.176Z,9.38
2017-02-20T01:29:03.720Z,9.41
2017-02-20T01:30:17.242Z,9.43
2017-02-20T01:31:30.883Z,9.43
2017-02-20T01:32:44.419Z,9.43
2017-02-20T01:33:58.027Z,9.43
2017-02-20T01:35:11.495Z,9.43
2017-02-20T01:36:25.151Z,9.42
2017-02-20T01:37:38.662Z,9.42
2017-02-20T01:38:52.231Z,9.43
2017-02-20T01:40:05.672Z,9.44
2017-02-20T01:41:19.282Z,9.44
2017-02-20T01:42:33.419Z,9.46
2017-02-20T01:43:47.375Z,9.46
2017-02-20T01:45:00.921Z,9.49
2017-02-20T01:46:19.580Z,9.49
2017-02-20T01:47:34.088Z,9.5
2017-02-20T01:48:47.572Z,9.52
2017-02-20T01:50:01.227Z,9.52
2017-02-20T01:51:14.703Z,9.53
2017-02-20T01:52:28.450Z,9.53
2017-02-20T01:53:42.225Z,9.52
2017-02-20T01:54:56.739Z,9.5
2017-02-20T01:56:10.171Z,9.48
2017-02-20T01:57:23.794Z,9.44
2017-02-20T01:58:39.854Z,9.41
2017-02-20T01:59:53.705Z,9.39
2017-02-20T02:01:07.381Z,9.36
2017-02-20T02:02:20.899Z,9.35
2017-02-20T02:03:34.525Z,9.35
2017-02-20T02:04:47.960Z,9.33
2017-02-20T02:06:01.535Z,9.31
2017-02-20T02:07:15.057Z,9.28
2017-02-20T02:08:29.109Z,9.25
2017-02-20T02:09:42.884Z,9.23
2017-02-20T02:10:56.448Z,9.23
2017-02-20T02:12:09.923Z,9.23
2017-02-20T02:13:23.548Z,9.23
2017-02-20T02:14:37.022Z,9.25
2017-02-20T02:15:50.689Z,9.25
2017-02-20T02:17:04.155Z,9.25
2017-02-20T02:18:17.837Z,9.25
2017-02-20T02:19:31.802Z,9.24
2017-02-20T02:20:45.381Z,9.21
2017-02-20T02:21:58.837Z,9.2
2017-02-20T02:23:12.930Z,9.2
2017-02-20T02:24:27.292Z,9.2
2017-02-20T02:25:41.257Z,9.18
2017-02-20T02:26:54.731Z,9.17
2017-02-20T02:28:08.271Z,9.16
2017-02-20T02:29:21.825Z,9.14
2017-02-20T02:30:35.529Z,9.11
2017-02-20T02:31:48.996Z,9.09
2017-02-20T02:33:02.596Z,9.06
2017-02-20T02:34:16.026Z,9.04
2017-02-20T02:35:29.672Z,9.03
2017-02-20T02:36:43.126Z,9.01
2017-02-20T02:37:57.110Z,9
2017-02-20T02:39:10.669Z,8.98
2017-02-20T02:40:24.312Z,8.97
2017-02-20T02:41:37.765Z,8.95
2017-02-20T02:42:51.373Z,8.96
2017-02-20T02:44:05.106Z,8.96
2017-02-20T02:45:18.879Z,8.96
2017-02-20T02:46:32.324Z,8.96
2017-02-20T02:47:45.994Z,8.96
2017-02-20T02:48:59.477Z,8.96
2017-02-20T02:50:13.211Z,8.98
2017-02-20T02:51:26.746Z,9
2017-02-20T02:52:40.379Z,9.02
2017-02-20T02:53:53.889Z,9.02
2017-02-20T02:55:07.441Z,9.03
2017-02-20T02:56:20.984Z,9.02
2017-02-20T02:57:34.963Z,9
2017-02-20T02:58:48.444Z,8.96
2017-02-20T03:00:02.030Z,8.92
2017-02-20T03:01:15.591Z,8.9
2017-02-20T03:02:29.126Z,8.87
2017-02-20T03:03:42.698Z,8.83
2017-02-20T03:04:56.255Z,8.81
2017-02-20T03:06:10.281Z,8.79
2017-02-20T03:07:23.955Z,8.77
2017-02-20T03:08:37.403Z,8.76
2017-02-20T03:09:51.250Z,8.75
2017-02-20T03:11:04.703Z,8.72
2017-02-20T03:12:18.427Z,8.71
2017-02-20T03:13:31.864Z,8.69
2017-02-20T03:14:47.642Z,8.66
2017-02-20T03:16:01.110Z,8.65
2017-02-20T03:17:14.829Z,8.63
2017-02-20T03:18:28.310Z,8.63
2017-02-20T03:19:42.688Z,8.63
2017-02-20T03:20:56.746Z,8.62
2017-02-20T03:22:10.885Z,8.62
2017-02-20T03:23:24.928Z,8.63
2017-02-20T03:24:38.495Z,8.61
2017-02-20T03:25:52.383Z,8.62
2017-02-20T03:27:06.165Z,8.6
2017-02-20T03:28:20.116Z,8.59
2017-02-20T03:29:33.729Z,8.57
2017-02-20T03:30:47.721Z,8.58
2017-02-20T03:32:02.095Z,8.56
2017-02-20T03:33:15.657Z,8.55
2017-02-20T03:34:29.412Z,8.52
2017-02-20T03:35:42.984Z,8.47
2017-02-20T03:36:57.102Z,8.42
2017-02-20T03:38:11.134Z,8.37
2017-02-20T03:39:25.327Z,8.34
2017-02-20T03:40:38.995Z,8.32
2017-02-20T03:41:53.205Z,8.31
2017-02-20T03:43:06.637Z,8.29
2017-02-20T03:44:20.305Z,8.26
2017-02-20T03:45:33.778Z,8.25
2017-02-20T03:46:47.571Z,8.22
2017-02-20T03:48:02.038Z,8.2
2017-02-20T03:49:16.417Z,8.16
2017-02-20T03:50:30.280Z,8.14
2017-02-20T03:51:43.803Z,8.11
2017-02-20T03:52:57.662Z,8.05
2017-02-20T03:54:13.018Z,8.01
2017-02-20T03:55:26.694Z,7.99
2017-02-20T03:56:40.391Z,7.99
2017-02-20T03:57:53.836Z,7.98
2017-02-20T03:59:07.860Z,8
2017-02-20T04:00:21.827Z,7.99
2017-02-20T04:01:35.381Z,7.97
2017-02-20T04:02:48.933Z,7.97
2017-02-20T04:04:02.525Z,7.96
2017-02-20T04:05:16.001Z,7.95
2017-02-20T04:06:29.975Z,7.93
2017-02-20T04:07:43.568Z,7.92
2017-02-20T04:08:57.102Z,7.92
2017-02-20T04:10:10.734Z,7.92
2017-02-20T04:11:24.341Z,7.92
2017-02-20T04:12:37.785Z,7.92
2017-02-20T04:13:51.333Z,7.91
2017-02-20T04:15:05.635Z,7.9
2017-02-20T04:16:19.257Z,7.89
2017-02-20T04:17:32.831Z,7.91
2017-02-20T04:18:46.382Z,7.92
2017-02-20T04:19:59.885Z,7.93
2017-02-20T04:21:13.558Z,7.95
2017-02-20T04:22:26.987Z,7.98
2017-02-20T04:23:40.522Z,7.99
2017-02-20T04:24:54.078Z,8.02
2017-02-20T04:26:08.198Z,8.05
2017-02-20T04:27:21.674Z,8.07
2017-02-20T04:28:35.366Z,8.09
2017-02-20T04:29:48.814Z,8.12
2017-02-20T04:31:04.596Z,8.16
2017-02-20T04:32:18.112Z,8.18
2017-02-20T04:33:31.770Z,8.19
2017-02-20T04:34:45.881Z,8.21
2017-02-20T04:35:59.864Z,8.23
2017-02-20T04:37:13.358Z,8.24
2017-02-20T04:38:26.900Z,8.26
2017-02-20T04:39:40.395Z,8.26
2017-02-20T04:40:53.952Z,8.26
2017-02-20T04:42:07.903Z,8.27
2017-02-20T04:43:21.623Z,8.28
2017-02-20T04:44:35.532Z,8.3
2017-02-20T04:45:49.088Z,8.32
2017-02-20T04:47:02.537Z,8.32
2017-02-20T04:48:16.273Z,8.33
2017-02-20T04:49:30.267Z,8.34
2017-02-20T04:50:43.835Z,8.37
2017-02-20T04:51:57.320Z,8.4
2017-02-20T04:53:11.024Z,8.44
2017-02-20T04:54:24.673Z,8.48
2017-02-20T04:55:38.620Z,8.51
2017-02-20T04:56:52.080Z,8.51
2017-02-20T04:58:06.163Z,8.51
2017-02-20T04:59:19.701Z,8.49
2017-02-20T05:00:33.281Z,8.48
2017-02-20T05:01:46.922Z,8.48
2017-02-20T05:03:00.496Z,8.48
2017-02-20T05:04:14.110Z,8.47
2017-02-20T05:05:27.770Z,8.47
2017-02-20T05:06:41.444Z,8.48
2017-02-20T05:07:55.051Z,8.49
2017-02-20T05:09:08.597Z,8.48
2017-02-20T05:10:22.157Z,8.49
2017-02-20T05:11:36.076Z,8.49
2017-02-20T05:12:49.638Z,8.51
2017-02-20T05:14:03.608Z,8.52
2017-02-20T05:15:17.229Z,8.55
2017-02-20T05:16:30.877Z,8.58
2017-02-20T05:17:44.512Z,8.6
2017-02-20T05:18:57.966Z,8.62
2017-02-20T05:20:11.642Z,8.63
2017-02-20T05:21:25.095Z,8.66
2017-02-20T05:22:39.185Z,8.66
2017-02-20T05:23:52.652Z,8.66
2017-02-20T05:25:06.284Z,8.67
2017-02-20T05:26:20.135Z,8.68
2017-02-20T05:27:34.107Z,8.67
2017-02-20T05:28:47.594Z,8.7
2017-02-20T05:30:01.796Z,8.72
2017-02-20T05:31:15.356Z,8.74
2017-02-20T05:32:29.479Z,8.76
2017-02-20T05:33:42.962Z,8.77
2017-02-20T05:34:56.508Z,8.77
2017-02-20T05:36:10.032Z,8.77
2017-02-20T05:37:24.188Z,8.77
2017-02-20T05:38:38.290Z,8.78
2017-02-20T05:39:51.850Z,8.78
2017-02-20T05:41:06.235Z,8.79
2017-02-20T05:42:19.835Z,8.81
2017-02-20T05:43:33.292Z,8.82
2017-02-20T05:44:46.933Z,8.84
2017-02-20T05:46:00.972Z,8.85
2017-02-20T05:47:17.312Z,8.88
2017-02-20T05:48:30.777Z,8.91
2017-02-20T05:49:44.542Z,8.95
2017-02-20T05:50:58.492Z,8.98
2017-02-20T05:52:12.070Z,8.99
2017-02-20T05:53:26.343Z,8.99
2017-02-20T05:54:39.913Z,9
2017-02-20T05:55:53.404Z,8.99
2017-02-20T05:57:07.303Z,8.99
2017-02-20T05:58:20.773Z,8.98
2017-02-20T05:59:34.326Z,8.98
2017-02-20T06:00:47.789Z,8.98
2017-02-20T06:02:01.738Z,8.96
2017-02-20T06:03:15.196Z,8.93
2017-02-20T06:04:28.925Z,8.9
2017-02-20T06:05:42.402Z,8.89
2017-02-20T06:06:56.385Z,8.86
2017-02-20T06:08:10.156Z,8.83
2017-02-20T06:09:24.149Z,8.81
2017-02-20T06:10:37.574Z,8.81
2017-02-20T06:11:51.121Z,8.8
2017-02-20T06:13:04.653Z,8.8
2017-02-20T06:14:18.227Z,8.78
2017-02-20T06:15:32.109Z,8.75
2017-02-20T06:16:45.734Z,8.71
2017-02-20T06:17:59.306Z,8.67
2017-02-20T06:19:13.286Z,8.67
2017-02-20T06:20:26.794Z,8.64
2017-02-20T06:21:40.355Z,8.63
2017-02-20T06:22:53.780Z,8.63
2017-02-20T06:24:07.627Z,8.61
2017-02-20T06:25:21.609Z,8.6
2017-02-20T06:26:35.193Z,8.6
2017-02-20T06:27:48.682Z,8.6
2017-02-20T06:29:02.380Z,8.62
2017-02-20T06:30:16.274Z,8.63
2017-02-20T06:31:29.919Z,8.61
2017-02-20T06:32:43.366Z,8.62
2017-02-20T06:33:57.051Z,8.61
2017-02-20T06:35:10.491Z,8.6
2017-02-20T06:36:24.073Z,8.6
2017-02-20T06:37:37.517Z,8.59
2017-02-20T06:38:51.285Z,8.57
2017-02-20T06:40:04.907Z,8.55
2017-02-20T06:41:18.490Z,8.54
2017-02-20T06:42:31.943Z,8.52
2017-02-20T06:43:45.534Z,8.53
2017-02-20T06:44:59.151Z,8.52
2017-02-20T06:46:12.728Z,8.53
2017-02-20T06:47:26.329Z,8.52
2017-02-20T06:48:40.328Z,8.51
2017-02-20T06:49:53.914Z,8.49
2017-02-20T06:51:07.611Z,8.48
2017-02-20T06:52:21.111Z,8.48
2017-02-20T06:53:34.922Z,8.5
2017-02-20T06:54:48.413Z,8.51
2017-02-20T06:56:02.455Z,8.52
2017-02-20T06:57:16.289Z,8.54
2017-02-20T06:58:30.280Z,8.57
2017-02-20T06:59:43.816Z,8.62
2017-02-20T07:00:57.632Z,8.69
2017-02-20T07:02:11.505Z,8.74
2017-02-20T07:03:27.270Z,8.8
2017-02-20T07:04:40.732Z,8.84
2017-02-20T07:05:54.843Z,8.89
2017-02-20T07:07:08.284Z,8.92
2017-02-20T07:08:22.789Z,8.95
2017-02-20T07:09:36.713Z,8.99
2017-02-20T07:10:50.719Z,9.04
2017-02-20T07:12:04.272Z,9.09
2017-02-20T07:13:18.288Z,9.14
2017-02-20T07:14:31.761Z,9.18
2017-02-20T07:15:45.768Z,9.18
2017-02-20T07:16:59.307Z,9.18
2017-02-20T07:18:12.883Z,9.19
2017-02-20T07:19:26.761Z,9.16
2017-02-20T07:20:40.305Z,9.16
2017-02-20T07:21:53.855Z,9.15
2017-02-20T07:23:07.468Z,9.16
2017-02-20T07:24:20.956Z,9.17
2017-02-20T07:25:34.551Z,9.17
2017-02-20T07:26:47.976Z,9.18
2017-02-20T07:28:02.073Z,9.19
2017-02-20T07:29:15.542Z,9.21
2017-02-20T07:30:29.090Z,9.24
2017-02-20T07:31:42.573Z,9.28
2017-02-20T07:32:56.297Z,9.33
2017-02-20T07:34:09.766Z,9.37
2017-02-20T07:35:23.404Z,9.43
2017-02-20T07:36:36.852Z,9.46
2017-02-20T07:37:50.867Z,9.5
2017-02-20T07:39:04.813Z,9.51
2017-02-20T07:40:18.347Z,9.52
2017-02-20T07:41:32.314Z,9.56
2017-02-20T07:42:45.875Z,9.6
2017-02-20T07:43:59.402Z,9.61
2017-02-20T07:45:12.960Z,9.63
2017-02-20T07:46:26.841Z,9.68
2017-02-20T07:47:40.627Z,9.73
2017-02-20T07:48:54.663Z,9.79
2017-02-20T07:50:08.648Z,9.85
2017-02-20T07:51:22.609Z,9.89
2017-02-20T07:52:36.201Z,9.93
2017-02-20T07:53:49.861Z,9.97
2017-02-20T07:55:03.509Z,10.01
2017-02-20T07:56:17.483Z,10.07
2017-02-20T07:57:31.091Z,10.1
2017-02-20T07:58:44.583Z,10.16
2017-02-20T07:59:58.291Z,10.24
2017-02-20T08:01:11.770Z,10.26
2017-02-20T08:02:25.474Z,10.25
2017-02-20T08:03:39.347Z,10.22
2017-02-20T08:04:53.080Z,10.21
2017-02-20T08:06:06.526Z,10.19
2017-02-20T08:07:20.110Z,10.18
2017-02-20T08:08:33.587Z,10.2
2017-02-20T08:09:47.615Z,10.23
2017-02-20T08:11:01.102Z,10.28
2017-02-20T08:12:14.649Z,10.32
2017-02-20T08:13:28.608Z,10.36
2017-02-20T08:14:42.551Z,10.39
2017-02-20T08:15:56.276Z,10.4
2017-02-20T08:17:23.080Z,10.38
2017-02-20T08:18:37.318Z,10.37
2017-02-20T08:19:53.167Z,10.37
2017-02-20T08:21:07.347Z,10.36
2017-02-20T08:22:21.025Z,10.35
2017-02-20T08:23:35.121Z,10.36
2017-02-20T08:24:49.258Z,10.38
2017-02-20T08:26:03.044Z,10.41
2017-02-20T08:27:16.646Z,10.45
2017-02-20T08:28:30.185Z,10.53
2017-02-20T08:29:43.814Z,10.58
2017-02-20T08:30:57.471Z,10.65
2017-02-20T08:32:11.053Z,10.7
2017-02-20T08:33:24.527Z,10.7
2017-02-20T08:34:38.185Z,10.71
2017-02-20T08:35:51.925Z,10.76
2017-02-20T08:38:24.724Z,10.83
2017-02-20T08:39:43.412Z,10.91
2017-02-20T08:40:57.287Z,10.98
2017-02-20T08:42:11.242Z,11.02
2017-02-20T08:43:25.122Z,11.06
2017-02-20T08:44:39.204Z,11.09
2017-02-20T08:45:52.851Z,11.11
2017-02-20T08:47:08.170Z,11.15
2017-02-20T08:48:21.669Z,11.17
2017-02-20T08:49:35.382Z,11.22
2017-02-20T08:50:48.970Z,11.26
2017-02-20T08:52:02.618Z,11.31
2017-02-20T08:53:16.196Z,11.35
2017-02-20T08:54:30.246Z,11.35
2017-02-20T08:55:44.206Z,11.32
2017-02-20T08:56:57.901Z,11.31
2017-02-20T08:58:11.823Z,11.26
2017-02-20T08:59:35.115Z,11.24
2017-02-20T09:00:48.700Z,11.2
2017-02-20T09:02:02.481Z,11.18
2017-02-20T09:03:16.026Z,11.16
2017-02-20T09:04:29.481Z,11.15
2017-02-20T09:05:43.072Z,11.18
2017-02-20T09:06:56.566Z,11.22
2017-02-20T09:08:10.532Z,11.26
2017-02-20T09:09:24.070Z,11.28
2017-02-20T09:10:37.632Z,11.33
2017-02-20T09:11:51.178Z,11.39
2017-02-20T09:13:04.841Z,11.43
2017-02-20T09:14:18.283Z,11.44
2017-02-20T09:15:31.936Z,11.42
2017-02-20T09:16:45.415Z,11.41
2017-02-20T09:17:59.300Z,11.41
2017-02-20T09:19:13.206Z,11.4
2017-02-20T09:20:26.932Z,11.41
2017-02-20T09:21:40.810Z,11.43
2017-02-20T09:22:54.447Z,11.39
2017-02-20T09:24:07.882Z,11.33
2017-02-20T09:25:21.423Z,11.31
2017-02-20T09:26:34.896Z,11.27
2017-02-20T09:27:48.478Z,11.26
2017-02-20T09:29:02.028Z,11.27
2017-02-20T09:30:15.911Z,11.29
2017-02-20T09:31:29.840Z,11.3
2017-02-20T09:32:43.400Z,11.31
2017-02-20T09:33:56.979Z,11.35
2017-02-20T09:35:10.551Z,11.39
2017-02-20T09:36:24.083Z,11.43
2017-02-20T09:37:40.433Z,11.48
2017-02-20T09:38:53.929Z,11.5
2017-02-20T09:40:07.492Z,11.51
2017-02-20T09:41:20.961Z,11.51
2017-02-20T09:42:35.009Z,11.54
2017-02-20T09:43:48.783Z,11.6
2017-02-20T09:45:02.445Z,11.65
2017-02-20T09:46:15.882Z,11.7
2017-02-20T09:47:29.438Z,11.73
2017-02-20T09:48:42.903Z,11.76
2017-02-20T09:49:57.371Z,11.81
2017-02-20T09:51:10.831Z,11.87
2017-02-20T09:52:24.578Z,11.96
2017-02-20T09:53:38.474Z,12.03
2017-02-20T09:54:52.620Z,12.09
2017-02-20T09:56:06.350Z,12.11
2017-02-20T09:57:19.989Z,12.12
2017-02-20T09:58:33.885Z,12.14
2017-02-20T09:59:47.739Z,12.17
2017-02-20T10:01:01.314Z,12.22
2017-02-20T10:02:15.664Z,12.27
2017-02-20T10:03:29.619Z,12.31
2017-02-20T10:04:43.808Z,12.31
2017-02-20T10:05:57.409Z,12.31
2017-02-20T10:07:10.986Z,12.32
2017-02-20T10:08:24.755Z,12.32
2017-02-20T10:09:38.310Z,12.34
2017-02-20T10:10:51.881Z,12.32
2017-02-20T10:12:05.658Z,12.32
2017-02-20T10:13:19.246Z,12.31
2017-02-20T10:14:33.279Z,12.32
2017-02-20T10:15:47.014Z,12.33
2017-02-20T10:17:00.901Z,12.34
2017-02-20T10:18:14.482Z,12.34
2017-02-20T10:19:29.036Z,12.34
2017-02-20T10:20:42.951Z,12.35
2017-02-20T10:21:56.699Z,12.37
2017-02-20T10:23:10.295Z,12.4
2017-02-20T10:24:24.407Z,12.47
2017-02-20T10:25:37.995Z,12.49
2017-02-20T10:26:52.136Z,12.52
2017-02-20T10:28:06.119Z,12.53
2017-02-20T10:29:20.195Z,12.58
2017-02-20T10:30:33.757Z,12.61
2017-02-20T10:31:48.732Z,12.65
2017-02-20T10:33:03.848Z,12.68
2017-02-20T10:34:17.597Z,12.69
2017-02-20T10:35:31.711Z,12.75
2017-02-20T10:36:45.655Z,12.81
2017-02-20T10:38:00.395Z,12.9
2017-02-20T10:39:15.180Z,12.91
2017-02-20T10:40:28.805Z,12.89
2017-02-20T10:41:42.432Z,12.87
2017-02-20T10:42:56.097Z,12.85
2017-02-20T10:44:10.176Z,12.89
2017-02-20T10:45:24.410Z,12.93
2017-02-20T10:46:38.034Z,12.96
2017-02-20T10:47:51.655Z,13.02
2017-02-20T10:49:05.749Z,13.08
2017-02-20T10:50:19.707Z,13.13
2017-02-20T10:51:33.709Z,13.21
2017-02-20T10:52:48.077Z,13.3
2017-02-20T10:54:04.266Z,13.34
2017-02-20T10:55:18.216Z,13.34
2017-02-20T10:56:31.866Z,13.37
2017-02-20T10:57:45.741Z,13.41
2017-02-20T10:58:59.361Z,13.47
2017-02-20T11:00:12.928Z,13.51
2017-02-20T11:01:26.931Z,13.58
2017-02-20T11:02:40.780Z,13.63
2017-02-20T11:03:55.260Z,13.68
2017-02-20T11:05:08.782Z,13.72
2017-02-20T11:06:22.379Z,13.74
2017-02-20T11:07:35.881Z,13.74
2017-02-20T11:08:49.628Z,13.74
2017-02-20T11:10:03.531Z,13.73
2017-02-20T11:11:17.129Z,13.73
2017-02-20T11:12:30.599Z,13.72
2017-02-20T11:13:44.298Z,13.72
2017-02-20T11:14:57.796Z,13.68
2017-02-20T11:16:11.689Z,13.65
2017-02-20T11:17:25.771Z,13.64
2017-02-20T11:18:39.363Z,13.64
2017-02-20T11:19:53.349Z,13.66
2017-02-20T11:21:06.946Z,13.65
2017-02-20T11:22:20.725Z,13.62
2017-02-20T11:23:34.627Z,13.62
2017-02-20T11:24:48.183Z,13.58
2017-02-20T11:26:01.776Z,13.58
2017-02-20T11:27:15.247Z,13.58
2017-02-20T11:28:29.530Z,13.58
2017-02-20T11:29:43.752Z,13.56
2017-02-20T11:30:57.789Z,13.53
2017-02-20T11:32:11.298Z,13.55
2017-02-20T11:33:24.896Z,13.56
2017-02-20T11:38:03.414Z,13.3
2017-02-20T11:39:17.027Z,13.28
2017-02-20T11:40:31.056Z,13.29
2017-02-20T11:41:44.701Z,13.31
2017-02-20T11:42:58.199Z,13.31
2017-02-20T11:44:11.853Z,13.29
2017-02-20T11:45:25.357Z,13.27
2017-02-20T11:46:40.635Z,13.27
2017-02-20T11:47:54.547Z,13.25
2017-02-20T11:49:08.159Z,13.27
2017-02-20T11:50:22.054Z,13.25
2017-02-20T11:51:36.451Z,13.24
2017-02-20T11:52:50.240Z,13.23
2017-02-20T11:54:04.114Z,13.19
2017-02-20T11:55:18.718Z,13.13
2017-02-20T11:56:33.291Z,13.1
2017-02-20T11:57:46.763Z,13.07
2017-02-20T11:59:00.769Z,13.06
2017-02-20T12:00:14.336Z,13.04
2017-02-20T12:01:28.007Z,13.04
2017-02-20T12:02:42.396Z,13.04
2017-02-20T12:03:55.968Z,13.03
2017-02-20T12:05:09.768Z,13.01
2017-02-20T12:06:23.480Z,13
2017-02-20T12:07:37.161Z,13.02
2017-02-20T12:08:50.722Z,13.04
2017-02-20T12:10:04.180Z,13.04
2017-02-20T12:11:18.902Z,13.02
2017-02-20T12:12:34.778Z,13.01
2017-02-20T12:13:48.259Z,13.03
2017-02-20T12:15:01.924Z,13.04
2017-02-20T12:16:15.603Z,13.04
2017-02-20T12:17:29.707Z,13.02
2017-02-20T12:18:43.729Z,12.98
2017-02-20T12:19:57.282Z,12.95
2017-02-20T12:21:10.732Z,12.94
2017-02-20T12:22:24.382Z,12.95
2017-02-20T12:23:38.226Z,12.95
2017-02-20T12:24:51.798Z,12.91
2017-02-20T12:26:05.276Z,12.9
2017-02-20T12:27:18.850Z,12.89
2017-02-20T12:28:32.423Z,12.84
2017-02-20T12:29:46.336Z,12.8
2017-02-20T12:31:00.227Z,12.75
2017-02-20T12:32:14.272Z,12.71
2017-02-20T12:33:28.082Z,12.69
2017-02-20T12:34:41.720Z,12.69
2017-02-20T12:35:55.562Z,12.71
2017-02-20T12:37:09.275Z,12.74
2017-02-20T12:38:23.360Z,12.76
2017-02-20T12:39:36.991Z,12.77
2017-02-20T12:40:50.494Z,12.78
2017-02-20T12:42:04.374Z,12.79
2017-02-20T12:43:18.270Z,12.77
2017-02-20T12:44:31.957Z,12.75
2017-02-20T12:45:45.423Z,12.73
2017-02-20T12:46:59.044Z,12.72
2017-02-20T12:48:12.768Z,12.73
2017-02-20T12:49:26.562Z,12.74
2017-02-20T12:50:40.031Z,12.77
2017-02-20T12:51:53.641Z,12.77
2017-02-20T12:53:07.188Z,12.77
2017-02-20T12:54:21.213Z,12.79
2017-02-20T12:55:34.764Z,12.79
2017-02-20T12:56:48.316Z,12.79
2017-02-20T12:58:01.783Z,12.8
2017-02-20T12:59:16.470Z,12.81
2017-02-20T13:00:30.524Z,12.83
2017-02-20T13:01:44.536Z,12.84
2017-02-20T13:02:58.014Z,12.83
2017-02-20T13:04:11.584Z,12.85
2017-02-20T13:05:25.151Z,12.85
2017-02-20T13:06:39.059Z,12.86
2017-02-20T13:07:52.661Z,12.86
2017-02-20T13:09:06.284Z,12.87
2017-02-20T13:10:19.882Z,12.86
2017-02-20T13:11:33.451Z,12.87
2017-02-20T13:12:47.235Z,12.86
2017-02-20T13:14:01.432Z,12.85
2017-02-20T13:15:14.974Z,12.84
2017-02-20T13:16:29.481Z,12.85
2017-02-20T13:17:42.965Z,12.83
2017-02-20T13:18:57.672Z,12.82
2017-02-20T13:20:11.163Z,12.79
2017-02-20T13:21:24.910Z,12.77
2017-02-20T13:22:38.890Z,12.76
2017-02-20T13:23:52.526Z,12.78
2017-02-20T13:25:07.152Z,12.78
2017-02-20T13:26:21.384Z,12.78
2017-02-20T13:27:34.930Z,12.75
2017-02-20T13:28:50.744Z,12.75
2017-02-20T13:30:04.562Z,12.72
2017-02-20T13:31:18.958Z,12.71
2017-02-20T13:32:32.475Z,12.7
2017-02-20T13:33:46.281Z,12.69
2017-02-20T13:34:59.791Z,12.71
2017-02-20T13:36:13.796Z,12.71
2017-02-20T13:37:27.641Z,12.72
2017-02-20T13:38:41.270Z,12.72
2017-02-20T13:39:54.718Z,12.71
2017-02-20T13:41:08.382Z,12.69
2017-02-20T13:42:22.121Z,12.67
2017-02-20T13:43:36.813Z,12.66
2017-02-20T13:44:50.725Z,12.65
2017-02-20T13:46:04.743Z,12.64
2017-02-20T13:47:18.846Z,12.66
2017-02-20T13:48:32.483Z,12.69
2017-02-20T13:49:46.284Z,12.72
2017-02-20T13:51:00.961Z,12.74
2017-02-20T13:52:14.937Z,12.73
2017-02-20T13:53:28.626Z,12.73
2017-02-20T13:54:42.609Z,12.71
2017-02-20T13:55:56.500Z,12.68
2017-02-20T13:57:10.030Z,12.66
2017-02-20T13:58:24.160Z,12.65
2017-02-20T13:59:37.664Z,12.65
2017-02-20T14:00:52.042Z,12.66
2017-02-20T14:02:05.518Z,12.65
2017-02-20T14:03:19.222Z,12.66
2017-02-20T14:04:32.812Z,12.67
2017-02-20T14:05:46.423Z,12.65
2017-02-20T14:07:00.328Z,12.65
2017-02-20T14:08:13.952Z,12.65
2017-02-20T14:09:28.157Z,12.64
2017-02-20T14:10:41.782Z,12.6
2017-02-20T14:11:55.278Z,12.57
2017-02-20T14:13:09.295Z,12.53
2017-02-20T14:14:23.210Z,12.51
2017-02-20T14:15:38.036Z,12.46
2017-02-20T14:16:51.551Z,12.46
2017-02-20T14:18:05.574Z,12.44
2017-02-20T14:19:20.097Z,12.41
2017-02-20T14:20:35.206Z,12.39
2017-02-20T14:21:48.712Z,12.37
2017-02-20T14:23:02.248Z,12.34
2017-02-20T14:24:16.862Z,12.3
2017-02-20T14:25:49.151Z,12.29
2017-02-20T14:27:02.733Z,12.29
2017-02-20T14:28:16.595Z,12.28
2017-02-20T14:29:30.296Z,12.3
2017-02-20T14:30:43.791Z,12.32
2017-02-20T14:31:57.636Z,12.31
2017-02-20T14:33:11.107Z,12.31
2017-02-20T14:34:24.663Z,12.27
2017-02-20T14:35:38.622Z,12.22
2017-02-20T14:36:52.213Z,12.21
2017-02-20T14:38:05.916Z,12.18
2017-02-20T14:39:19.515Z,12.14
2017-02-20T14:40:33.757Z,12.1
2017-02-20T14:41:47.354Z,12.09
2017-02-20T14:43:00.806Z,12.06
2017-02-20T14:44:23.508Z,12
2017-02-20T14:45:58.197Z,11.96
2017-02-20T14:47:11.807Z,11.92
2017-02-20T14:48:25.709Z,11.9
2017-02-20T14:49:39.491Z,11.87
2017-02-20T14:50:53.543Z,11.85
2017-02-20T14:52:07.161Z,11.85
2017-02-20T14:53:21.726Z,11.83
2017-02-20T14:54:35.616Z,11.82
2017-02-20T14:55:49.147Z,11.82
2017-02-20T14:57:03.309Z,11.8
2017-02-20T14:58:16.783Z,11.77
2017-02-20T14:59:30.774Z,11.74
2017-02-20T15:00:44.343Z,11.7
2017-02-20T15:01:59.544Z,11.66
2017-02-20T15:03:13.190Z,11.63
2017-02-20T15:04:27.572Z,11.61
2017-02-20T15:05:41.173Z,11.58
2017-02-20T15:06:54.734Z,11.58
2017-02-20T15:08:08.303Z,11.57
2017-02-20T15:09:22.117Z,11.6
2017-02-20T15:10:36.003Z,11.61
2017-02-20T15:11:49.608Z,11.61
2017-02-20T15:13:03.128Z,11.61
2017-02-20T15:14:17.122Z,11.61
2017-02-20T15:15:31.451Z,11.6
2017-02-20T15:16:45.236Z,11.58
2017-02-20T15:17:58.737Z,11.57
2017-02-20T15:19:12.350Z,11.58
2017-02-20T15:20:26.006Z,11.59
2017-02-20T15:21:39.686Z,11.58
2017-02-20T15:22:53.448Z,11.56
2017-02-20T15:24:07.023Z,11.54
2017-02-20T15:25:20.516Z,11.54
2017-02-20T15:26:34.519Z,11.52
2017-02-20T15:27:48.002Z,11.54
2017-02-20T15:29:01.573Z,11.56
2017-02-20T15:30:15.094Z,11.56
2017-02-20T15:31:29.164Z,11.57
2017-02-20T15:32:43.115Z,11.58
2017-02-20T15:33:56.717Z,11.57
2017-02-20T15:35:10.198Z,11.55
2017-02-20T15:36:23.912Z,11.54
2017-02-20T15:37:37.549Z,11.49
2017-02-20T15:38:51.552Z,11.44
2017-02-20T15:40:05.062Z,11.39
2017-02-20T15:41:19.127Z,11.33
2017-02-20T15:42:33.600Z,11.29
2017-02-20T15:43:47.637Z,11.26
2017-02-20T15:45:01.151Z,11.23
2017-02-20T15:46:15.228Z,11.22
2017-02-20T15:47:28.702Z,11.19
2017-02-20T15:48:42.645Z,11.18
2017-02-20T15:49:56.792Z,11.16
2017-02-20T15:51:10.612Z,11.15
2017-02-20T15:52:24.062Z,11.13
2017-02-20T15:53:37.734Z,11.12
2017-02-20T15:54:52.068Z,11.1
2017-02-20T15:56:05.697Z,11.09
2017-02-20T15:57:19.722Z,11.08
2017-02-20T15:58:33.558Z,11.07
2017-02-20T15:59:47.015Z,11.02
2017-02-20T16:01:00.585Z,10.98
2017-02-20T16:02:16.382Z,10.93
2017-02-20T16:03:30.313Z,10.91
2017-02-20T16:04:45.156Z,10.88
2017-02-20T16:05:59.706Z,10.87
2017-02-20T16:07:15.750Z,10.83
2017-02-20T16:08:30.933Z,10.81
2017-02-20T16:09:47.721Z,10.79
2017-02-20T16:11:05.422Z,10.77
2017-02-20T16:12:21.759Z,10.74
2017-02-20T16:13:37.584Z,10.76
2017-02-20T16:14:51.909Z,10.75
2017-02-20T16:16:13.088Z,10.74